Time;durP1;ratioP1;P1;durP2;ratioP2;P2;SDS_P1;SDS_P2;PMS_P1;PMS_P2;Temp;Humidity;BMP_temperature;BMP_pressure;BME280_temperature;BME280_humidity;BME280_pressure;Samples;Min_cycle;Max_cycle;Signal;HPM_P1;HPM_P2
2022/11/03 00:01:59;;;;;;;10.35;4.68;;;;;;;8.88;68.52;101410.00;5039679;28;20053;-64
2022/11/03 00:04:27;;;;;;;12.45;5.32;;;;;;;8.90;69.05;101415.19;5037370;28;20144;-64
2022/11/03 00:06:55;;;;;;;13.52;4.82;;;;;;;8.94;69.49;101410.66;5033989;28;20092;-65
2022/11/03 00:09:22;;;;;;;11.43;4.75;;;;;;;8.94;69.98;101418.56;5034308;28;20157;-63
2022/11/03 00:11:50;;;;;;;12.80;5.28;;;;;;;8.92;69.52;101407.28;5038528;28;20069;-65
2022/11/03 00:14:18;;;;;;;11.88;4.90;;;;;;;8.91;70.21;101409.00;5029580;28;20045;-64
2022/11/03 00:16:46;;;;;;;11.75;5.38;;;;;;;8.90;69.56;101411.72;5029973;28;20060;-64
2022/11/03 00:19:15;;;;;;;7.93;4.18;;;;;;;8.88;70.45;101407.38;5034534;28;20052;-64
2022/11/03 00:21:43;;;;;;;11.55;4.85;;;;;;;8.86;69.80;101397.84;5033309;28;20136;-64
2022/11/03 00:24:11;;;;;;;10.50;5.25;;;;;;;8.84;70.27;101399.69;5031287;28;20103;-62
2022/11/03 00:26:38;;;;;;;11.13;5.00;;;;;;;8.83;70.38;101401.47;5031494;28;20080;-63
2022/11/03 00:29:10;;;;;;;11.63;5.18;;;;;;;8.76;70.93;101404.38;5032384;28;20405;-64
2022/11/03 00:31:39;;;;;;;12.85;4.68;;;;;;;8.73;70.83;101394.84;5032158;28;20071;-64
2022/11/03 00:34:07;;;;;;;12.98;4.63;;;;;;;8.75;70.89;101407.91;5026756;28;20490;-64
2022/11/03 00:36:42;;;;;;;12.05;4.97;;;;;;;8.75;71.27;101402.66;5032231;28;20522;-65
2022/11/03 00:39:10;;;;;;;15.27;5.68;;;;;;;8.71;71.39;101399.31;5031693;28;20052;-65
2022/11/03 00:41:38;;;;;;;12.93;4.93;;;;;;;8.68;70.40;101401.19;5029724;28;20091;-64
2022/11/03 00:44:05;;;;;;;11.52;4.53;;;;;;;8.67;72.20;101391.59;5033947;28;20048;-64
2022/11/03 00:46:35;;;;;;;10.10;4.63;;;;;;;8.65;72.05;101390.81;5030464;28;20061;-64
2022/11/03 00:49:03;;;;;;;11.32;4.22;;;;;;;8.67;72.61;101381.09;5030851;28;20055;-64
2022/11/03 00:51:32;;;;;;;10.00;4.25;;;;;;;8.69;73.08;101387.13;5031846;28;20071;-63
2022/11/03 00:54:01;;;;;;;11.98;4.78;;;;;;;8.68;72.80;101380.19;5033683;28;20083;-64
2022/11/03 00:56:33;;;;;;;12.63;3.97;;;;;;;8.66;72.88;101366.28;5035959;28;20064;-63
2022/11/03 00:59:01;;;;;;;11.60;5.20;;;;;;;8.68;74.04;101380.19;5031568;28;20057;-63
2022/11/03 01:01:30;;;;;;;10.23;4.25;;;;;;;8.67;74.25;101370.59;5032090;28;20064;-62
2022/11/03 01:06:51;;;;;;;14.30;5.60;;;;;;;8.60;73.67;101372.59;5031236;28;20088;-65
2022/11/03 01:09:24;;;;;;;12.15;4.85;;;;;;;8.56;73.68;101366.63;5029369;28;20045;-65
2022/11/03 01:11:58;;;;;;;9.52;4.50;;;;;;;8.51;74.90;101368.59;5031693;28;20527;-63
2022/11/03 01:14:27;;;;;;;11.65;4.43;;;;;;;8.42;74.52;101365.44;5032158;28;20136;-64
2022/11/03 01:16:55;;;;;;;12.10;4.25;;;;;;;8.43;74.60;101359.28;5032802;28;20445;-63
2022/11/03 01:19:22;;;;;;;13.15;4.43;;;;;;;8.45;74.39;101365.31;5030192;28;20083;-63
2022/11/03 01:21:51;;;;;;;12.77;4.82;;;;;;;8.45;74.49;101365.31;5029656;28;20046;-64
2022/11/03 01:24:18;;;;;;;10.23;4.78;;;;;;;8.41;73.73;101361.09;5031083;28;20048;-63
2022/11/03 01:26:45;;;;;;;9.93;5.05;;;;;;;8.31;73.80;101371.91;5032252;28;20057;-64
2022/11/03 01:29:12;;;;;;;9.23;4.28;;;;;;;8.32;74.66;101364.91;5031522;28;20132;-63
2022/11/03 01:31:40;;;;;;;11.18;4.05;;;;;;;8.31;75.77;101365.81;5030815;28;20091;-64
2022/11/03 01:34:12;;;;;;;8.95;3.53;;;;;;;8.31;75.04;101364.03;5030696;28;20382;-64
2022/11/03 01:36:39;;;;;;;12.60;3.90;;;;;;;8.29;74.99;101370.28;5029686;28;20472;-63
2022/11/03 01:39:09;;;;;;;12.82;4.18;;;;;;;8.29;75.15;101365.03;5029981;28;20045;-64
2022/11/03 01:41:36;;;;;;;8.43;3.85;;;;;;;8.29;75.70;101362.41;5031290;28;20132;-62
2022/11/03 01:44:26;;;;;;;10.07;3.75;;;;;;;8.27;75.29;101359.81;5028977;28;20061;-64
2022/11/03 01:47:02;;;;;;;12.40;4.32;;;;;;;8.28;74.64;101352.81;5030144;28;20072;-63
2022/11/03 01:49:51;;;;;;;11.00;3.80;;;;;;;8.27;76.01;101356.34;5029374;28;20064;-63
2022/11/03 01:52:20;;;;;;;9.90;3.80;;;;;;;8.26;75.65;101368.63;5025276;28;20076;-65
2022/11/03 01:54:52;;;;;;;11.43;3.60;;;;;;;8.26;76.42;101357.28;5030633;28;20060;-65
2022/11/03 01:57:24;;;;;;;10.48;3.95;;;;;;;8.22;76.47;101356.53;5025187;28;20049;-64
2022/11/03 01:59:52;;;;;;;9.98;3.38;;;;;;;8.20;76.33;101358.38;5028933;28;20050;-63
2022/11/03 02:02:20;;;;;;;14.88;4.00;;;;;;;8.22;76.42;101350.44;5031090;28;20094;-64
2022/11/03 02:04:47;;;;;;;9.88;3.47;;;;;;;8.19;77.34;101356.63;5030477;28;20052;-62
2022/11/03 02:07:37;;;;;;;10.70;3.25;;;;;;;8.20;77.37;101337.38;5030004;28;20049;-63
2022/11/03 02:10:05;;;;;;;9.13;3.50;;;;;;;8.20;77.37;101342.63;5023668;28;20053;-64
2022/11/03 02:12:32;;;;;;;11.52;3.13;;;;;;;8.20;77.21;101340.00;5030157;28;20057;-64
2022/11/03 02:15:04;;;;;;;13.23;3.75;;;;;;;8.19;78.25;101337.41;5028819;28;20506;-63
2022/11/03 02:17:32;;;;;;;10.43;3.42;;;;;;;8.20;78.47;101339.16;5026681;28;20080;-62
2022/11/03 02:20:04;;;;;;;11.18;3.50;;;;;;;8.19;79.81;101337.41;5028461;28;20059;-64
2022/11/03 02:22:40;;;;;;;10.02;3.88;;;;;;;8.18;79.99;101327.84;5029516;28;20431;-63
2022/11/03 02:25:13;;;;;;;9.98;3.22;;;;;;;8.17;80.18;101328.75;5026910;28;20053;-65
2022/11/03 02:27:40;;;;;;;9.20;3.38;;;;;;;8.15;79.00;101320.97;5029951;28;20080;-63
2022/11/03 02:30:08;;;;;;;7.47;2.72;;;;;;;8.11;79.32;101314.13;5028134;28;20124;-64
2022/11/03 02:33:08;;;;;;;8.60;3.47;;;;;;;8.10;81.20;101320.25;5029455;28;20510;-64
2022/11/03 02:35:41;;;;;;;11.57;3.50;;;;;;;8.10;80.76;101315.91;5028181;28;20057;-64
2022/11/03 02:38:11;;;;;;;10.35;3.90;;;;;;;8.12;80.03;101305.34;5028331;28;20046;-64
2022/11/03 02:40:44;;;;;;;12.73;4.38;;;;;;;8.07;81.04;101308.13;5027725;28;20053;-64
2022/11/03 02:43:13;;;;;;;7.95;3.70;;;;;;;8.03;81.78;101303.91;5025826;28;20068;-64
2022/11/03 02:45:41;;;;;;;9.05;3.40;;;;;;;8.03;81.07;101314.41;5030370;28;20124;-62
2022/11/03 02:48:09;;;;;;;8.43;3.97;;;;;;;8.05;81.78;101317.81;5028977;28;20054;-64
2022/11/03 02:50:36;;;;;;;8.77;3.85;;;;;;;8.03;80.50;101308.31;5026410;28;20045;-63
2022/11/03 02:53:03;;;;;;;9.20;3.38;;;;;;;7.99;80.31;101309.31;5027861;28;20056;-64
2022/11/03 02:55:36;;;;;;;11.60;4.07;;;;;;;7.96;80.07;101309.44;5030474;28;20052;-62
2022/11/03 02:58:08;;;;;;;11.77;3.72;;;;;;;7.91;80.77;101309.59;5024853;28;20050;-63
2022/11/03 03:01:02;;;;;;;8.98;3.22;;;;;;;7.92;81.11;101302.59;5023620;28;20042;-63
2022/11/03 03:03:39;;;;;;;11.43;3.33;;;;;;;7.92;80.83;101292.97;5024843;28;20057;-64
2022/11/03 03:06:09;;;;;;;9.25;3.28;;;;;;;7.89;80.15;101298.34;5023583;28;20124;-63
2022/11/03 03:08:44;;;;;;;9.88;3.60;;;;;;;7.90;79.88;101294.78;5027720;28;20049;-63
2022/11/03 03:11:12;;;;;;;8.25;3.50;;;;;;;7.88;80.64;101288.75;5028021;28;20133;-63
2022/11/03 03:13:41;;;;;;;13.60;4.03;;;;;;;7.89;81.47;101279.97;5025529;28;20510;-63
2022/11/03 03:16:16;;;;;;;9.77;3.70;;;;;;;7.90;80.80;101280.84;5027614;28;20049;-63
2022/11/03 03:18:49;;;;;;;11.17;3.33;;;;;;;7.88;81.28;101280.91;5025763;28;20057;-62
2022/11/03 03:21:25;;;;;;;8.35;3.22;;;;;;;7.85;80.62;101281.00;5028921;28;20128;-63
2022/11/03 03:24:07;;;;;;;10.30;2.90;;;;;;;7.83;80.73;101280.19;5028802;28;20123;-63
2022/11/03 03:26:40;;;;;;;9.57;3.38;;;;;;;7.78;80.76;101288.22;5025297;28;20054;-63
2022/11/03 03:29:14;;;;;;;7.68;2.92;;;;;;;7.77;80.76;101285.66;5028053;28;20053;-64
2022/11/03 03:31:46;;;;;;;13.07;4.10;;;;;;;7.78;80.78;101282.13;5030888;28;20076;-64
2022/11/03 03:34:14;;;;;;;11.40;3.05;;;;;;;7.76;80.94;101281.34;5027416;28;20126;-64
2022/11/03 03:37:02;;;;;;;12.50;3.92;;;;;;;7.75;80.76;101280.50;5026914;28;20178;-64
2022/11/03 03:39:32;;;;;;;8.75;3.28;;;;;;;7.76;80.90;101276.97;5027390;28;20057;-63
2022/11/03 03:42:01;;;;;;;12.32;3.60;;;;;;;7.74;80.76;101270.03;5027328;28;20050;-64
2022/11/03 03:44:28;;;;;;;11.00;2.95;;;;;;;7.73;80.49;101279.69;5029034;28;20049;-63
2022/11/03 03:47:02;;;;;;;12.77;4.50;;;;;;;7.74;80.30;101272.66;5026980;28;20056;-64
2022/11/03 03:49:29;;;;;;;9.80;3.45;;;;;;;7.74;80.86;101268.28;5026853;28;20064;-64
2022/11/03 03:51:56;;;;;;;8.73;3.83;;;;;;;7.74;81.53;101265.66;5027930;28;20045;-63
2022/11/03 03:54:23;;;;;;;8.00;2.72;;;;;;;7.76;81.41;101263.00;5027241;28;20049;-64
2022/11/03 03:56:55;;;;;;;11.13;3.67;;;;;;;7.74;81.72;101270.03;5027663;28;20465;-63
2022/11/03 03:59:22;;;;;;;10.27;3.33;;;;;;;7.75;81.10;101271.78;5026498;28;20053;-63
2022/11/03 04:01:50;;;;;;;7.05;2.80;;;;;;;7.74;82.05;101275.28;5028421;28;20053;-62
2022/11/03 04:04:17;;;;;;;6.78;3.20;;;;;;;7.74;81.44;101270.03;5028765;28;20124;-64
2022/11/03 04:06:44;;;;;;;12.98;3.67;;;;;;;7.74;81.71;101268.28;5026462;28;20129;-63
2022/11/03 04:09:11;;;;;;;10.20;2.97;;;;;;;7.72;81.70;101266.66;5028727;28;20057;-64
2022/11/03 04:22:54;;;;;;;11.85;3.28;;;;;;;7.66;82.39;101264.25;5029430;28;20042;-64
2022/11/03 04:25:22;;;;;;;6.22;2.65;;;;;;;7.62;82.04;101260.88;5024156;28;20049;-63
2022/11/03 04:27:49;;;;;;;9.43;3.15;;;;;;;7.58;81.73;101260.13;5030067;28;20645;-64
2022/11/03 04:30:20;;;;;;;14.95;3.50;;;;;;;7.57;81.41;101263.69;5030681;28;20063;-64
2022/11/03 04:32:48;;;;;;;10.93;3.50;;;;;;;7.56;81.31;101259.31;5030497;28;20092;-65
2022/11/03 04:35:23;;;;;;;7.45;3.00;;;;;;;7.55;81.01;101254.16;5027799;28;20055;-64
2022/11/03 04:37:57;;;;;;;11.35;3.92;;;;;;;7.49;81.24;101255.22;5032094;28;20077;-64
2022/11/03 04:40:25;;;;;;;8.50;3.30;;;;;;;7.47;81.81;101243.94;5029579;28;20060;-62
2022/11/03 04:42:52;;;;;;;6.68;3.33;;;;;;;7.47;81.71;101240.47;5027941;28;20089;-64
2022/11/03 04:45:27;;;;;;;13.43;4.10;;;;;;;7.46;82.06;101241.38;5034616;28;20271;-65
2022/11/03 04:47:54;;;;;;;9.20;3.47;;;;;;;7.43;81.72;101229.25;5030720;28;20067;-64
2022/11/03 04:50:22;;;;;;;10.65;3.33;;;;;;;7.41;82.27;101233.69;5030570;28;20053;-64
2022/11/03 04:52:54;;;;;;;7.85;3.63;;;;;;;7.41;82.64;101230.22;5032879;28;20132;-64
2022/11/03 04:55:22;;;;;;;5.80;3.03;;;;;;;7.40;82.65;101221.50;5031187;28;20080;-62
2022/11/03 04:57:57;;;;;;;15.80;4.25;;;;;;;7.33;83.37;101225.25;5032395;28;20057;-64
2022/11/03 05:00:24;;;;;;;13.77;3.60;;;;;;;7.34;83.48;101224.34;5033377;28;20091;-64
2022/11/03 05:02:51;;;;;;;12.45;5.18;;;;;;;7.38;83.75;101214.59;5031949;28;20060;-66
2022/11/03 05:05:24;;;;;;;6.60;3.35;;;;;;;7.34;83.39;101208.66;5027967;28;20076;-65
2022/11/03 05:07:54;;;;;;;13.57;3.58;;;;;;;7.32;84.38;101213.06;5032694;28;20068;-65
2022/11/03 05:10:25;;;;;;;8.38;3.42;;;;;;;7.33;84.09;101199.06;5030727;28;20058;-65
2022/11/03 05:12:53;;;;;;;7.60;3.53;;;;;;;7.33;83.21;101210.38;5043893;28;20145;-64
2022/11/03 05:15:29;;;;;;;9.85;3.40;;;;;;;7.31;83.49;101199.13;5039996;28;20116;-65
2022/11/03 05:17:58;;;;;;;11.75;4.38;;;;;;;7.27;83.76;101199.28;5039454;28;20084;-65
2022/11/03 05:20:29;;;;;;;10.27;3.40;;;;;;;7.28;83.36;101207.06;5031316;28;20514;-63
2022/11/03 05:23:03;;;;;;;9.93;3.63;;;;;;;7.29;82.76;101200.06;5024666;28;20045;-64
2022/11/03 05:25:42;;;;;;;12.57;3.42;;;;;;;7.30;84.13;101193.94;5028714;28;20132;-64
2022/11/03 05:28:27;;;;;;;13.38;3.42;;;;;;;7.28;83.80;101188.75;5029741;28;20045;-65
2022/11/03 05:30:55;;;;;;;9.57;3.10;;;;;;;7.25;84.01;101182.75;5031221;28;20081;-63
2022/11/03 05:33:28;;;;;;;9.50;3.15;;;;;;;7.23;84.01;101176.72;5031116;28;20136;-65
2022/11/03 05:35:58;;;;;;;11.18;3.63;;;;;;;7.23;84.30;101171.50;5028373;28;20425;-64
2022/11/03 05:38:28;;;;;;;9.50;3.33;;;;;;;7.22;84.64;101168.03;5028895;28;20073;-64
2022/11/03 05:40:56;;;;;;;5.70;3.38;;;;;;;7.21;84.64;101165.47;5029862;28;20141;-65
2022/11/03 05:43:23;;;;;;;8.10;3.40;;;;;;;7.19;83.99;101160.28;5027201;28;20129;-65
2022/11/03 05:45:53;;;;;;;9.88;4.00;;;;;;;7.17;84.11;101169.13;5030302;28;20133;-64
2022/11/03 05:48:33;;;;;;;13.60;4.40;;;;;;;7.16;84.26;101170.00;5031008;28;20133;-62
2022/11/03 05:51:02;;;;;;;7.70;3.03;;;;;;;7.15;84.70;101168.28;5031446;28;20126;-63
2022/11/03 05:53:46;;;;;;;9.82;3.40;;;;;;;7.15;85.44;101168.28;5030808;28;20620;-65
2022/11/03 05:56:18;;;;;;;12.73;4.10;;;;;;;7.14;84.99;101182.31;5037361;28;20494;-64
2022/11/03 05:58:47;;;;;;;11.35;3.42;;;;;;;7.13;85.30;101170.13;5030987;28;20129;-63
2022/11/03 06:01:17;;;;;;;13.07;3.72;;;;;;;7.12;84.74;101165.81;5028520;28;20051;-64
2022/11/03 06:03:45;;;;;;;13.63;4.07;;;;;;;7.10;84.35;101166.69;5028481;28;20057;-64
2022/11/03 06:06:19;;;;;;;9.13;3.40;;;;;;;7.08;85.06;101165.91;5028749;28;20045;-62
2022/11/03 06:08:46;;;;;;;12.75;4.05;;;;;;;7.07;84.70;101164.22;5030278;28;20055;-64
2022/11/03 06:11:24;;;;;;;8.70;3.55;;;;;;;7.04;84.75;101163.47;5031243;28;20432;-62
2022/11/03 06:13:54;;;;;;;11.00;3.45;;;;;;;7.03;84.79;101167.00;5028520;28;20425;-64
2022/11/03 06:16:36;;;;;;;13.63;3.63;;;;;;;7.00;84.81;101183.66;5028263;28;20148;-64
2022/11/03 06:19:21;;;;;;;13.07;4.35;;;;;;;6.98;84.44;101185.47;5028380;28;20051;-64
2022/11/03 06:21:49;;;;;;;10.40;3.50;;;;;;;7.00;85.40;101185.41;5029422;28;20113;-62
2022/11/03 06:24:19;;;;;;;17.45;3.33;;;;;;;7.02;85.83;101188.81;5029703;28;20145;-65
2022/11/03 06:26:47;;;;;;;8.50;3.08;;;;;;;7.00;85.06;101191.50;5030363;28;20133;-64
2022/11/03 06:29:16;;;;;;;14.45;4.30;;;;;;;6.98;85.33;101184.59;5033173;28;20045;-69
2022/11/03 06:31:48;;;;;;;12.52;3.63;;;;;;;6.96;84.98;101192.50;5030582;28;20164;-63
2022/11/03 06:34:32;;;;;;;10.73;3.40;;;;;;;6.97;85.53;101190.75;5031495;28;20536;-63
2022/11/03 06:37:08;;;;;;;12.98;3.83;;;;;;;6.97;85.28;101188.97;5026846;28;20056;-63
2022/11/03 06:39:39;;;;;;;9.55;3.20;;;;;;;6.94;85.65;101183.88;5029952;28;20069;-64
2022/11/03 06:42:11;;;;;;;12.93;4.00;;;;;;;6.97;85.72;101181.13;5029841;28;20140;-65
2022/11/03 06:44:41;;;;;;;12.70;4.65;;;;;;;6.97;85.50;101186.38;5029290;28;20136;-63
2022/11/03 06:47:25;;;;;;;8.68;4.05;;;;;;;6.96;85.73;101179.44;5023766;28;20049;-63
2022/11/03 06:49:59;;;;;;;11.32;4.25;;;;;;;6.95;85.68;101177.72;5028144;28;20057;-64
2022/11/03 06:52:36;;;;;;;13.35;5.63;;;;;;;6.98;86.36;101171.50;5020181;28;20045;-63
2022/11/03 06:55:04;;;;;;;11.55;5.07;;;;;;;6.99;86.36;101165.38;5021082;28;20049;-63
2022/11/03 06:57:34;;;;;;;15.88;5.03;;;;;;;6.97;86.11;101154.09;5017913;28;20128;-63
2022/11/03 07:00:12;;;;;;;10.68;4.22;;;;;;;6.98;86.97;101148.84;5027993;28;20052;-64
2022/11/03 07:03:18;;;;;;;13.00;3.63;;;;;;;6.96;87.22;101142.78;5028431;28;20120;-64
2022/11/03 07:05:45;;;;;;;11.00;3.47;;;;;;;6.96;86.88;101145.41;5028327;28;20512;-64
2022/11/03 07:08:22;;;;;;;10.25;3.42;;;;;;;6.94;87.15;101147.22;5028705;28;20506;-64
2022/11/03 07:10:57;;;;;;;9.52;3.95;;;;;;;6.97;87.23;101152.34;5023578;28;20145;-63
2022/11/03 07:13:24;;;;;;;15.20;3.72;;;;;;;7.05;86.61;101154.69;5029194;28;20084;-64
2022/11/03 07:15:52;;;;;;;8.10;3.70;;;;;;;7.10;86.96;101144.91;5029129;28;20060;-61
2022/11/03 07:18:25;;;;;;;9.45;3.45;;;;;;;7.14;86.55;101148.28;5031110;28;20058;-64
2022/11/03 07:20:54;;;;;;;10.52;3.53;;;;;;;7.17;86.85;101148.16;5027635;28;20456;-63
2022/11/03 07:23:24;;;;;;;16.95;3.72;;;;;;;7.21;86.21;101144.53;5029982;28;20049;-62
2022/11/03 07:25:53;;;;;;;13.65;4.97;;;;;;;7.27;86.08;101150.38;5031277;28;20057;-64
2022/11/03 07:28:23;;;;;;;17.60;4.22;;;;;;;7.30;85.87;101145.03;5029740;28;20063;-64
2022/11/03 07:30:50;;;;;;;9.82;3.65;;;;;;;7.31;85.79;101145.88;5027575;28;20073;-62
2022/11/03 07:33:25;;;;;;;14.93;4.10;;;;;;;7.39;86.53;101150.84;5029304;28;20071;-64
2022/11/03 07:35:55;;;;;;;12.52;4.20;;;;;;;7.44;86.53;101152.38;5028230;28;20083;-63
2022/11/03 07:38:45;;;;;;;9.68;3.97;;;;;;;7.52;85.70;101149.44;5025552;28;20696;-62
2022/11/03 07:41:20;;;;;;;9.98;3.85;;;;;;;7.57;85.72;101153.63;5011282;28;20045;-64
2022/11/03 07:43:58;;;;;;;12.68;3.53;;;;;;;7.65;85.72;101150.69;5027198;28;20072;-63
2022/11/03 07:46:25;;;;;;;14.27;4.10;;;;;;;7.71;85.22;101160.09;5029502;28;20137;-63
2022/11/03 07:48:57;;;;;;;10.60;4.00;;;;;;;7.73;84.98;101153.88;5010081;28;20149;-64
2022/11/03 07:51:32;;;;;;;12.30;4.13;;;;;;;7.78;85.26;101148.47;5027837;28;20055;-62
2022/11/03 07:54:22;;;;;;;11.93;3.93;;;;;;;7.83;85.03;101143.88;5028750;28;20044;-63
2022/11/03 07:56:55;;;;;;;15.20;4.07;;;;;;;7.90;84.37;101142.75;5026259;28;20892;-65
2022/11/03 07:59:26;;;;;;;9.35;3.55;;;;;;;7.94;83.54;101139.09;5025142;28;20063;-64
2022/11/03 08:01:55;;;;;;;10.98;3.38;;;;;;;7.98;83.79;101135.44;5031363;28;20506;-64
2022/11/03 08:04:24;;;;;;;13.57;4.35;;;;;;;7.97;83.34;101131.13;5032401;28;20569;-64
2022/11/03 08:06:51;;;;;;;12.93;3.78;;;;;;;7.96;83.15;101121.50;5032189;28;20153;-62
2022/11/03 08:09:20;;;;;;;11.52;4.10;;;;;;;8.00;83.59;101115.25;5031898;28;20050;-62
2022/11/03 08:11:47;;;;;;;12.52;4.18;;;;;;;8.09;83.31;101121.88;5034590;28;20152;-62
2022/11/03 08:14:14;;;;;;;10.82;3.58;;;;;;;8.10;83.47;101111.34;5032278;28;20052;-60
2022/11/03 08:16:42;;;;;;;11.35;3.50;;;;;;;8.15;83.75;101115.53;5028992;28;20688;-63
2022/11/03 08:19:09;;;;;;;10.85;3.38;;;;;;;8.19;83.32;101104.00;5033215;28;20052;-62
2022/11/03 08:21:36;;;;;;;15.10;3.85;;;;;;;8.25;82.67;101102.00;5031976;28;20092;-63
2022/11/03 08:24:04;;;;;;;10.60;3.65;;;;;;;8.34;82.79;101098.13;5026825;28;20060;-64
2022/11/03 08:26:31;;;;;;;11.15;3.13;;;;;;;8.33;82.40;101093.78;5029830;28;20051;-63
2022/11/03 08:28:58;;;;;;;11.57;3.40;;;;;;;8.38;82.65;101098.91;5031458;28;20068;-63
2022/11/03 08:31:26;;;;;;;15.60;3.80;;;;;;;8.34;82.08;101103.38;5030687;28;20055;-63
2022/11/03 08:33:53;;;;;;;11.18;3.55;;;;;;;8.42;81.36;101093.44;5030627;28;20140;-64
2022/11/03 08:36:20;;;;;;;12.15;3.95;;;;;;;8.49;81.32;101092.25;5032208;28;20049;-63
2022/11/03 08:38:47;;;;;;;13.40;4.25;;;;;;;8.53;81.29;101093.84;5031725;28;20060;-62
2022/11/03 08:41:15;;;;;;;13.45;3.45;;;;;;;8.60;81.22;101079.53;5031153;28;20046;-64
2022/11/03 08:43:42;;;;;;;11.48;3.17;;;;;;;8.62;81.36;101085.56;5029191;28;20061;-64
2022/11/03 08:46:09;;;;;;;9.27;3.63;;;;;;;8.69;81.29;101074.78;5032766;28;20045;-63
2022/11/03 08:48:46;;;;;;;11.30;3.03;;;;;;;8.80;80.65;101081.28;5032088;28;20061;-63
2022/11/03 08:51:14;;;;;;;11.32;3.03;;;;;;;8.86;80.08;101065.25;5029563;28;20538;-63
2022/11/03 08:53:41;;;;;;;11.43;3.00;;;;;;;8.95;80.50;101063.13;5030887;28;20049;-64
2022/11/03 08:56:10;;;;;;;10.75;2.83;;;;;;;9.05;79.80;101060.03;5029144;28;20424;-63
2022/11/03 08:58:40;;;;;;;14.05;3.42;;;;;;;9.15;79.33;101054.34;5024610;28;20089;-64
2022/11/03 09:01:07;;;;;;;7.03;2.83;;;;;;;9.25;79.14;101045.97;5029696;28;20046;-62
2022/11/03 09:03:34;;;;;;;9.25;2.88;;;;;;;9.34;79.00;101039.44;5032151;28;20644;-63
2022/11/03 09:06:02;;;;;;;10.75;3.22;;;;;;;9.36;79.04;101032.31;5024777;28;20417;-63
2022/11/03 09:08:29;;;;;;;9.93;3.33;;;;;;;9.47;78.08;101024.78;5031175;28;20054;-63
2022/11/03 09:11:16;;;;;;;12.05;2.70;;;;;;;9.64;76.64;101034.50;5026731;28;20063;-63
2022/11/03 09:13:43;;;;;;;11.50;3.22;;;;;;;9.74;76.65;101034.91;5030440;28;20409;-65
2022/11/03 09:16:10;;;;;;;12.98;3.38;;;;;;;9.77;76.83;101026.84;5030507;28;20080;-63
2022/11/03 09:18:37;;;;;;;8.10;3.13;;;;;;;9.87;76.28;101025.47;5028974;28;20144;-64
2022/11/03 09:21:05;;;;;;;10.80;3.10;;;;;;;9.92;76.11;101018.22;5029285;28;20444;-64
2022/11/03 09:23:32;;;;;;;9.98;2.70;;;;;;;9.99;75.56;101024.00;5029290;28;20514;-63
2022/11/03 09:25:59;;;;;;;11.52;3.08;;;;;;;10.09;75.40;101018.22;5033989;28;20044;-65
2022/11/03 09:28:26;;;;;;;13.50;3.00;;;;;;;10.18;75.15;101016.03;5030677;28;20136;-64
2022/11/03 09:30:54;;;;;;;13.05;2.67;;;;;;;10.21;74.00;101015.88;5030794;28;20124;-62
2022/11/03 09:33:21;;;;;;;13.82;2.97;;;;;;;10.34;73.38;101014.34;5029724;28;20045;-64
2022/11/03 09:35:48;;;;;;;13.55;2.85;;;;;;;10.42;73.13;101006.91;5028001;28;20136;-63
2022/11/03 09:38:15;;;;;;;14.98;3.53;;;;;;;10.51;72.99;100997.69;5030434;28;20041;-64
2022/11/03 09:40:42;;;;;;;13.40;3.28;;;;;;;10.56;72.92;100985.13;5030771;28;20176;-64
2022/11/03 09:43:10;;;;;;;8.82;2.92;;;;;;;10.63;71.77;100987.38;5028729;28;20081;-64
2022/11/03 09:45:38;;;;;;;7.78;3.45;;;;;;;10.72;71.35;100980.75;5026103;28;20590;-64
2022/11/03 09:48:09;;;;;;;8.82;2.60;;;;;;;10.79;71.57;100978.63;5030235;28;20136;-65
2022/11/03 09:50:36;;;;;;;8.18;2.22;;;;;;;10.84;71.77;100968.69;5031193;28;20062;-63
2022/11/03 09:53:04;;;;;;;12.25;4.47;;;;;;;10.97;70.96;100971.50;5032824;28;20546;-64
2022/11/03 09:55:32;;;;;;;9.25;3.10;;;;;;;11.02;70.64;100975.59;5031106;28;20057;-64
2022/11/03 09:58:01;;;;;;;10.75;4.03;;;;;;;11.03;70.76;100966.78;5026016;28;20053;-64
2022/11/03 10:00:28;;;;;;;8.98;2.63;;;;;;;11.17;70.62;100968.63;5028702;28;20064;-64
2022/11/03 10:02:55;;;;;;;11.30;2.47;;;;;;;11.30;70.00;100963.50;5029878;28;20075;-64
2022/11/03 10:05:24;;;;;;;12.13;2.75;;;;;;;11.45;69.32;100964.44;5028249;28;20133;-64
2022/11/03 10:07:56;;;;;;;18.00;3.72;;;;;;;11.51;68.83;100958.81;5030811;28;20062;-64
2022/11/03 10:10:24;;;;;;;11.02;2.78;;;;;;;11.59;68.70;100952.16;5029788;28;20049;-64
2022/11/03 10:12:52;;;;;;;15.52;2.85;;;;;;;11.61;68.46;100955.53;5029990;28;20128;-63
2022/11/03 10:15:21;;;;;;;11.15;3.08;;;;;;;11.70;68.39;100948.03;5029944;28;20148;-63
2022/11/03 10:17:49;;;;;;;10.70;2.58;;;;;;;11.82;67.82;100939.41;5028100;28;20065;-63
2022/11/03 10:20:18;;;;;;;14.57;2.92;;;;;;;11.86;67.29;100935.69;5031297;28;20532;-63
2022/11/03 10:22:46;;;;;;;9.63;2.67;;;;;;;11.92;67.50;100930.03;5030650;28;20359;-64
2022/11/03 10:25:29;;;;;;;10.23;3.30;;;;;;;12.02;67.03;100925.06;5034377;28;20041;-65
2022/11/03 10:28:14;;;;;;;10.85;2.85;;;;;;;12.10;66.72;100926.28;5034563;28;20117;-64
2022/11/03 10:30:48;;;;;;;11.07;2.80;;;;;;;12.15;67.03;100921.56;5040107;28;20049;-64
2022/11/03 10:33:40;;;;;;;6.68;2.67;;;;;;;12.21;66.25;100916.88;5033779;28;20057;-64
2022/11/03 10:36:14;;;;;;;12.25;2.47;;;;;;;12.27;66.49;100909.44;5034834;28;20109;-64
2022/11/03 10:38:42;;;;;;;8.35;2.58;;;;;;;12.29;66.46;100902.28;5032485;28;20063;-63
2022/11/03 10:41:28;;;;;;;9.57;3.22;;;;;;;12.41;66.32;100906.78;5028178;28;20045;-64
2022/11/03 10:44:04;;;;;;;7.03;2.08;;;;;;;12.49;65.82;100903.69;5030944;28;20053;-64
2022/11/03 10:46:32;;;;;;;9.13;2.67;;;;;;;12.54;65.27;100896.31;5034833;28;20049;-63
2022/11/03 10:49:19;;;;;;;6.05;2.25;;;;;;;12.63;65.69;100884.31;5032368;28;20061;-64
2022/11/03 10:51:49;;;;;;;6.97;2.10;;;;;;;12.76;64.67;100889.69;5027499;28;20060;-64
2022/11/03 10:54:18;;;;;;;12.00;2.63;;;;;;;12.82;64.77;100878.72;5013513;28;20421;-64
2022/11/03 10:56:45;;;;;;;8.10;2.78;;;;;;;12.87;64.42;100882.75;5031984;28;20045;-64
2022/11/03 10:59:18;;;;;;;9.90;2.78;;;;;;;12.89;64.76;100875.59;5026929;28;20132;-64
2022/11/03 11:01:45;;;;;;;7.25;2.55;;;;;;;12.92;64.08;100872.75;5030030;28;20068;-65
2022/11/03 11:04:17;;;;;;;12.45;2.90;;;;;;;12.90;63.56;100863.22;5031029;28;20067;-64
2022/11/03 11:06:45;;;;;;;10.93;3.20;;;;;;;12.83;63.79;100868.06;5025085;28;20056;-65
2022/11/03 11:09:16;;;;;;;11.43;2.83;;;;;;;12.74;64.35;100863.34;5034909;28;20509;-65
2022/11/03 11:12:06;;;;;;;11.45;2.75;;;;;;;12.66;64.34;100850.63;5030140;28;20116;-64
2022/11/03 11:14:35;;;;;;;13.52;3.45;;;;;;;12.61;65.04;100849.25;5030141;28;20060;-65
2022/11/03 11:17:03;;;;;;;6.57;2.45;;;;;;;12.60;64.72;100848.38;5019676;28;20045;-63
2022/11/03 11:20:08;;;;;;;12.05;2.65;;;;;;;12.63;64.93;100852.63;5030085;28;20657;-64
2022/11/03 11:22:35;;;;;;;13.38;3.08;;;;;;;12.56;65.45;100849.53;5028209;28;20080;-63
2022/11/03 11:25:03;;;;;;;8.95;2.80;;;;;;;12.55;65.80;100841.69;5026905;28;20041;-63
2022/11/03 11:27:32;;;;;;;11.68;2.67;;;;;;;12.64;65.29;100833.19;5024688;28;20526;-64
2022/11/03 11:30:03;;;;;;;9.75;2.97;;;;;;;12.59;65.70;100825.56;5030555;28;20232;-64
2022/11/03 11:32:49;;;;;;;8.10;3.03;;;;;;;12.54;65.52;100825.00;5030059;28;20526;-64
2022/11/03 11:35:25;;;;;;;6.73;2.57;;;;;;;12.54;65.82;100824.16;5030002;28;20058;-63
2022/11/03 11:37:53;;;;;;;14.15;3.25;;;;;;;12.54;65.97;100818.88;5025970;28;20472;-63
2022/11/03 11:40:23;;;;;;;6.20;2.25;;;;;;;12.56;65.84;100812.56;5033712;28;20076;-63
2022/11/03 11:43:05;;;;;;;11.02;2.83;;;;;;;12.54;66.28;100808.31;5029540;28;20581;-62
2022/11/03 11:46:10;;;;;;;9.82;2.53;;;;;;;12.57;66.17;100798.41;5036756;28;20075;-63
2022/11/03 11:48:38;;;;;;;10.75;2.90;;;;;;;12.56;65.86;100791.44;5027453;28;20069;-64
2022/11/03 11:51:09;;;;;;;12.27;3.03;;;;;;;12.58;65.94;100799.25;5037713;28;20537;-63
2022/11/03 11:53:42;;;;;;;6.15;2.33;;;;;;;12.62;65.98;100790.19;5027844;28;20141;-64
2022/11/03 11:56:11;;;;;;;12.48;3.30;;;;;;;12.52;65.53;100774.09;5018372;28;20212;-63
2022/11/03 11:58:53;;;;;;;8.18;2.60;;;;;;;12.52;65.92;100779.38;5028231;28;20141;-64
2022/11/03 12:01:31;;;;;;;8.82;2.92;;;;;;;12.52;65.89;100774.09;5027689;28;20065;-64